Time;durP1;ratioP1;P1;durP2;ratioP2;P2;SDS_P1;SDS_P2;PMS_P1;PMS_P2;Temp;Humidity;BMP_temperature;BMP_pressure;BME280_temperature;BME280_humidity;BME280_pressure;Samples;Min_cycle;Max_cycle;Signal;HPM_P1;HPM_P2
2023/09/26 00:00:14;;;;;;;6.05;2.67;;;;;;;;;;5022321;28;20391;-68
2023/09/26 00:03:00;;;;;;;4.88;2.60;;;;;;;;;;5019826;28;21146;-68
2023/09/26 00:05:27;;;;;;;4.75;2.42;;;;;;;;;;5023208;28;20046;-68
2023/09/26 00:07:54;;;;;;;4.32;2.15;;;;;;;;;;5023507;28;20429;-68
2023/09/26 00:10:21;;;;;;;3.97;2.70;;;;;;;;;;5008119;28;20262;-68
2023/09/26 00:12:47;;;;;;;6.07;2.50;;;;;;;;;;5024519;28;20052;-67
2023/09/26 00:15:13;;;;;;;6.57;2.30;;;;;;;;;;5022407;28;20176;-68
2023/09/26 00:17:41;;;;;;;3.28;2.10;;;;;;;;;;5024443;28;20153;-67
2023/09/26 00:20:11;;;;;;;8.30;2.17;;;;;;;;;;5024277;28;20083;-69
2023/09/26 00:22:36;;;;;;;3.80;2.20;;;;;;;;;;5022659;28;20498;-68
2023/09/26 00:25:03;;;;;;;6.75;2.30;;;;;;;;;;5021543;28;20041;-67
2023/09/26 00:27:29;;;;;;;8.00;2.20;;;;;;;;;;5028087;28;20132;-67
2023/09/26 00:29:56;;;;;;;8.02;3.05;;;;;;;;;;5022623;28;20049;-68
2023/09/26 00:32:23;;;;;;;4.38;2.20;;;;;;;;;;5026308;28;20045;-68
2023/09/26 00:34:49;;;;;;;5.20;2.40;;;;;;;;;;5026620;28;20053;-68
2023/09/26 00:37:15;;;;;;;6.15;2.70;;;;;;;;;;5024873;28;20054;-68
2023/09/26 00:39:41;;;;;;;5.88;2.58;;;;;;;;;;5024328;28;20045;-65
2023/09/26 00:42:07;;;;;;;6.40;2.75;;;;;;;;;;5027663;28;20056;-67
2023/09/26 00:44:33;;;;;;;5.03;2.67;;;;;;;;;;5017434;28;21525;-69
2023/09/26 00:47:01;;;;;;;5.63;2.53;;;;;;;;;;5008527;28;20244;-68
2023/09/26 00:49:30;;;;;;;6.82;2.60;;;;;;;;;;5022153;28;20060;-68
2023/09/26 00:51:57;;;;;;;8.88;2.80;;;;;;;;;;5026864;28;20049;-67
2023/09/26 00:54:24;;;;;;;5.25;2.92;;;;;;;;;;5030213;28;20061;-68
2023/09/26 00:56:50;;;;;;;6.50;2.72;;;;;;;;;;5026798;28;20080;-69
2023/09/26 00:59:16;;;;;;;6.97;3.00;;;;;;;;;;5026419;28;20516;-67
2023/09/26 01:01:45;;;;;;;6.70;3.50;;;;;;;;;;5022422;28;20061;-68
2023/09/26 01:04:13;;;;;;;7.55;3.63;;;;;;;;;;4989649;28;20061;-67
2023/09/26 01:06:41;;;;;;;7.88;2.72;;;;;;;;;;5018388;28;20049;-67
2023/09/26 01:09:09;;;;;;;7.28;3.30;;;;;;;;;;5020815;28;20136;-68
2023/09/26 01:11:37;;;;;;;7.03;3.25;;;;;;;;;;5017558;28;20063;-68
2023/09/26 01:14:03;;;;;;;9.35;2.95;;;;;;;;;;5026713;28;20429;-68
2023/09/26 01:16:30;;;;;;;7.45;3.55;;;;;;;;;;5026423;28;20060;-68
2023/09/26 01:18:56;;;;;;;8.82;3.88;;;;;;;;;;5022663;28;20553;-67
2023/09/26 01:21:22;;;;;;;8.13;3.83;;;;;;;;;;5014840;28;20091;-67
2023/09/26 01:23:56;;;;;;;9.93;4.30;;;;;;;;;;5017798;28;20064;-69
2023/09/26 01:26:23;;;;;;;8.77;4.32;;;;;;;;;;5027660;28;20056;-67
2023/09/26 01:28:49;;;;;;;10.57;4.15;;;;;;;;;;5028247;28;20053;-67
2023/09/26 01:31:14;;;;;;;11.93;4.15;;;;;;;;;;5026281;28;20060;-68
2023/09/26 01:33:41;;;;;;;7.35;3.53;;;;;;;;;;5023486;28;20049;-67
2023/09/26 01:36:07;;;;;;;8.27;3.95;;;;;;;;;;5032103;28;20053;-66
2023/09/26 01:38:34;;;;;;;8.13;3.55;;;;;;;;;;5025147;28;20072;-67
2023/09/26 01:41:01;;;;;;;6.55;3.03;;;;;;;;;;5013030;28;20052;-68
2023/09/26 01:43:28;;;;;;;6.20;3.30;;;;;;;;;;5029731;28;20080;-66
2023/09/26 01:45:54;;;;;;;5.57;3.50;;;;;;;;;;5029036;28;20128;-69
2023/09/26 01:48:20;;;;;;;7.80;3.90;;;;;;;;;;5027427;28;20080;-68
2023/09/26 01:50:47;;;;;;;9.75;4.35;;;;;;;;;;5027152;28;20057;-68
2023/09/26 01:53:14;;;;;;;9.13;3.80;;;;;;;;;;5026370;28;20058;-67
2023/09/26 01:55:40;;;;;;;11.07;4.70;;;;;;;;;;5018428;28;20056;-68
2023/09/26 01:58:06;;;;;;;11.77;4.80;;;;;;;;;;5023457;28;20057;-67
2023/09/26 02:00:32;;;;;;;11.88;4.68;;;;;;;;;;5024612;28;20476;-67
2023/09/26 02:02:58;;;;;;;10.35;5.10;;;;;;;;;;5024940;28;20460;-67
2023/09/26 02:05:25;;;;;;;10.85;5.28;;;;;;;;;;5004683;28;20052;-66
2023/09/26 02:07:51;;;;;;;9.27;5.30;;;;;;;;;;5025919;28;20308;-67
2023/09/26 02:10:18;;;;;;;10.82;5.20;;;;;;;;;;5029264;28;20096;-68
2023/09/26 02:12:47;;;;;;;11.63;5.15;;;;;;;;;;5027941;28;20076;-67
2023/09/26 02:15:14;;;;;;;11.00;5.03;;;;;;;;;;5022521;28;20099;-68
2023/09/26 02:17:41;;;;;;;14.73;5.70;;;;;;;;;;5006185;28;20143;-67
2023/09/26 02:20:13;;;;;;;13.50;5.53;;;;;;;;;;5024560;28;20524;-67
2023/09/26 02:22:41;;;;;;;12.73;5.32;;;;;;;;;;5016724;28;20468;-68
2023/09/26 02:25:14;;;;;;;12.57;4.60;;;;;;;;;;5022099;28;20520;-67
2023/09/26 02:27:43;;;;;;;16.33;4.88;;;;;;;;;;5001904;28;20058;-67
2023/09/26 02:30:12;;;;;;;8.05;4.38;;;;;;;;;;5023393;28;20107;-67
2023/09/26 02:32:38;;;;;;;11.75;4.45;;;;;;;;;;5003219;28;20107;-67
2023/09/26 02:35:07;;;;;;;11.02;4.40;;;;;;;;;;5018068;28;20814;-68
2023/09/26 02:37:33;;;;;;;8.23;3.72;;;;;;;;;;5020073;28;20037;-69
2023/09/26 02:40:00;;;;;;;7.13;3.50;;;;;;;;;;4990172;28;20517;-68
2023/09/26 02:42:26;;;;;;;7.10;3.50;;;;;;;;;;5022535;28;20049;-68
2023/09/26 02:44:52;;;;;;;6.38;3.10;;;;;;;;;;5017673;28;20674;-67
2023/09/26 02:47:18;;;;;;;6.47;3.00;;;;;;;;;;5022069;28;20053;-68
2023/09/26 02:49:47;;;;;;;7.35;3.05;;;;;;;;;;5020926;28;20045;-68
2023/09/26 02:52:13;;;;;;;4.53;2.78;;;;;;;;;;5021567;28;20616;-67
2023/09/26 02:54:39;;;;;;;6.70;2.83;;;;;;;;;;5021997;28;20144;-68
2023/09/26 02:57:05;;;;;;;4.13;2.30;;;;;;;;;;5022920;28;20086;-68
2023/09/26 02:59:31;;;;;;;6.53;2.28;;;;;;;;;;5020544;28;20075;-68
2023/09/26 03:01:58;;;;;;;6.68;2.30;;;;;;;;;;5022116;28;20393;-67
2023/09/26 03:04:24;;;;;;;6.97;2.40;;;;;;;;;;5016825;28;20454;-67
2023/09/26 03:06:50;;;;;;;8.93;1.90;;;;;;;;;;5021797;28;20041;-68
2023/09/26 03:09:16;;;;;;;3.63;2.45;;;;;;;;;;5024684;28;20050;-67
2023/09/26 03:11:43;;;;;;;5.35;2.40;;;;;;;;;;5023985;28;20049;-67
2023/09/26 03:14:10;;;;;;;6.75;2.30;;;;;;;;;;5024105;28;20049;-68
2023/09/26 03:16:36;;;;;;;5.68;2.03;;;;;;;;;;5025094;28;20053;-66
2023/09/26 03:19:02;;;;;;;5.38;2.00;;;;;;;;;;5012145;28;20095;-69
2023/09/26 03:21:29;;;;;;;5.10;2.00;;;;;;;;;;5019211;28;20057;-67
2023/09/26 03:23:55;;;;;;;5.72;2.10;;;;;;;;;;5019147;28;20072;-67
2023/09/26 03:27:03;;;;;;;4.07;1.90;;;;;;;;;;5022569;28;20123;-67
2023/09/26 03:30:44;;;;;;;5.60;2.20;;;;;;;;;;5013600;28;20046;-68
2023/09/26 03:34:25;;;;;;;4.72;2.03;;;;;;;;;;5006480;28;20144;-67
2023/09/26 03:38:05;;;;;;;3.10;1.70;;;;;;;;;;5014530;28;20045;-67
2023/09/26 03:41:46;;;;;;;3.85;1.90;;;;;;;;;;5013017;28;20699;-67
2023/09/26 03:44:14;;;;;;;5.10;1.98;;;;;;;;;;4995238;28;20995;-68
2023/09/26 03:47:20;;;;;;;6.10;1.98;;;;;;;;;;5010044;28;20041;-69
2023/09/26 03:51:02;;;;;;;5.47;2.28;;;;;;;;;;5014413;28;20084;-67
2023/09/26 03:54:42;;;;;;;4.13;1.92;;;;;;;;;;5018499;28;20145;-67
2023/09/26 03:58:23;;;;;;;4.95;2.15;;;;;;;;;;5023942;28;20038;-67
2023/09/26 04:02:03;;;;;;;5.97;2.20;;;;;;;;;;5019014;28;20053;-67
2023/09/26 04:05:47;;;;;;;4.75;2.40;;;;;;;;;;5015544;28;20132;-67
2023/09/26 04:09:24;;;;;;;10.40;4.20;;;;;;;;;;5025396;28;20072;-68
2023/09/26 04:13:04;;;;;;;8.65;4.05;;;;;;;;;;5020494;28;20041;-68
2023/09/26 04:16:45;;;;;;;10.32;4.13;;;;;;;;;;5022501;28;20045;-68
2023/09/26 04:20:25;;;;;;;11.68;4.35;;;;;;;;;;5020203;28;20470;-68
2023/09/26 04:24:07;;;;;;;8.85;4.15;;;;;;;;;;5015305;28;20201;-70
2023/09/26 04:27:47;;;;;;;11.10;4.30;;;;;;;;;;5019543;28;20055;-68
2023/09/26 04:31:35;;;;;;;8.50;3.50;;;;;;;;;;5028833;28;20052;-68
2023/09/26 04:35:16;;;;;;;10.70;3.40;;;;;;;;;;5019070;28;20406;-69
2023/09/26 04:38:56;;;;;;;8.48;3.75;;;;;;;;;;5026677;28;20115;-69
2023/09/26 04:41:57;;;;;;;7.10;3.10;;;;;;;;;;5021102;28;20393;-69
2023/09/26 04:45:05;;;;;;;5.80;2.80;;;;;;;;;;5023557;28;20348;-74
2023/09/26 04:48:46;;;;;;;4.80;2.28;;;;;;;;;;5013637;28;20054;-72
2023/09/26 04:52:26;;;;;;;9.52;2.42;;;;;;;;;;5018759;28;20099;-69
2023/09/26 04:56:07;;;;;;;4.90;2.20;;;;;;;;;;5022277;28;20057;-69
2023/09/26 04:59:47;;;;;;;5.13;2.10;;;;;;;;;;5021723;28;20600;-69
2023/09/26 05:03:31;;;;;;;5.28;2.17;;;;;;;;;;5014293;28;20050;-70
2023/09/26 05:07:12;;;;;;;6.18;2.70;;;;;;;;;;5014843;28;20084;-69
2023/09/26 05:10:52;;;;;;;5.30;2.20;;;;;;;;;;5018307;28;20073;-68
2023/09/26 05:14:35;;;;;;;6.90;2.08;;;;;;;;;;5008810;28;20094;-70
2023/09/26 05:18:15;;;;;;;4.15;2.03;;;;;;;;;;5018799;28;20076;-68
2023/09/26 05:21:55;;;;;;;3.95;2.10;;;;;;;;;;5019845;28;20127;-69
2023/09/26 05:25:36;;;;;;;6.68;2.50;;;;;;;;;;5024077;28;20061;-69
2023/09/26 05:29:16;;;;;;;6.75;2.17;;;;;;;;;;5025033;28;20038;-69
2023/09/26 05:32:58;;;;;;;5.93;2.22;;;;;;;;;;5025491;28;20045;-70
2023/09/26 05:36:38;;;;;;;5.00;2.20;;;;;;;;;;5030988;28;20319;-69
2023/09/26 05:40:19;;;;;;;4.07;2.05;;;;;;;;;;5026001;28;20064;-71
2023/09/26 05:44:01;;;;;;;3.75;2.20;;;;;;;;;;5018086;28;20457;-70
2023/09/26 05:47:43;;;;;;;6.30;2.53;;;;;;;;;;5018246;28;20088;-69
2023/09/26 05:51:23;;;;;;;10.75;2.60;;;;;;;;;;5024642;28;20041;-70
2023/09/26 05:55:05;;;;;;;6.13;2.20;;;;;;;;;;5024130;28;20305;-72
2023/09/26 05:58:46;;;;;;;7.68;2.88;;;;;;;;;;5023688;28;20050;-71
2023/09/26 06:02:24;;;;;;;4.35;2.10;;;;;;;;;;5025717;28;20072;-68
2023/09/26 06:06:04;;;;;;;8.57;2.70;;;;;;;;;;5022014;28;20041;-66
2023/09/26 06:09:44;;;;;;;4.68;2.30;;;;;;;;;;5023107;28;20049;-68
2023/09/26 06:13:25;;;;;;;4.75;2.47;;;;;;;;;;5018543;28;20053;-67
2023/09/26 06:17:06;;;;;;;8.23;2.85;;;;;;;;;;5021099;28;20449;-76
2023/09/26 06:20:47;;;;;;;5.60;2.50;;;;;;;;;;5024005;28;20053;-77
2023/09/26 06:24:28;;;;;;;4.13;2.55;;;;;;;;;;5027744;28;20045;-77
2023/09/26 06:28:10;;;;;;;6.65;2.63;;;;;;;;;;5091646;23;20056;-73
2023/09/26 06:31:51;;;;;;;7.85;2.58;;;;;;;;;;5043429;28;20052;-72
2023/09/26 06:35:32;;;;;;;9.52;2.45;;;;;;;;;;5053644;28;20131;-80
2023/09/26 06:39:12;;;;;;;16.98;3.10;;;;;;;;;;5044383;28;20072;-74
2023/09/26 06:42:50;;;;;;;7.70;2.80;;;;;;;;;;5034929;28;20101;-73
2023/09/26 06:45:16;;;;;;;7.78;2.80;;;;;;;;;;5037900;28;20053;-74
2023/09/26 06:47:43;;;;;;;12.38;2.50;;;;;;;;;;5025309;28;20387;-76
2023/09/26 06:50:11;;;;;;;8.25;2.55;;;;;;;;;;5045461;28;20041;-78
2023/09/26 06:52:38;;;;;;;9.48;3.00;;;;;;;;;;5042603;28;20049;-74
2023/09/26 06:55:10;;;;;;;7.82;2.55;;;;;;;;;;5048574;28;20448;-77
2023/09/26 06:57:38;;;;;;;8.35;2.45;;;;;;;;;;5050749;28;20045;-76
2023/09/26 07:00:05;;;;;;;9.82;2.70;;;;;;;;;;5054897;28;20235;-79
2023/09/26 07:03:11;;;;;;;12.15;3.05;;;;;;;;;;5040777;28;20087;-76
2023/09/26 07:06:52;;;;;;;10.85;2.95;;;;;;;;;;5034017;28;20063;-78
2023/09/26 07:10:32;;;;;;;8.23;3.10;;;;;;;;;;5045016;28;20056;-77
2023/09/26 07:14:12;;;;;;;5.55;2.80;;;;;;;;;;5045240;28;20049;-74
2023/09/26 07:17:52;;;;;;;8.45;3.25;;;;;;;;;;5040186;28;20444;-72
2023/09/26 07:21:33;;;;;;;6.50;2.92;;;;;;;;;;5041855;28;20247;-76
2023/09/26 07:25:13;;;;;;;8.80;2.70;;;;;;;;;;5042953;28;20049;-72
2023/09/26 07:28:54;;;;;;;10.20;2.63;;;;;;;;;;5028443;28;20049;-71
2023/09/26 07:32:35;;;;;;;6.78;3.17;;;;;;;;;;5026416;28;20098;-73
2023/09/26 07:36:15;;;;;;;16.17;2.88;;;;;;;;;;5026984;28;20048;-71
2023/09/26 07:39:55;;;;;;;8.13;2.80;;;;;;;;;;5027385;28;20042;-71
2023/09/26 07:43:36;;;;;;;7.00;2.88;;;;;;;;;;5021969;28;20271;-72
2023/09/26 07:47:16;;;;;;;7.97;2.55;;;;;;;;;;5027684;28;20048;-72
2023/09/26 07:50:57;;;;;;;11.65;2.80;;;;;;;;;;5025707;28;20050;-70
2023/09/26 07:54:37;;;;;;;10.20;3.10;;;;;;;;;;5011120;28;20046;-70
2023/09/26 07:58:18;;;;;;;7.72;2.63;;;;;;;;;;5015551;28;20402;-71
2023/09/26 08:01:59;;;;;;;10.98;2.65;;;;;;;;;;5017690;28;20053;-71
2023/09/26 08:05:40;;;;;;;10.13;2.70;;;;;;;;;;5023811;28;20111;-72
2023/09/26 08:09:22;;;;;;;9.02;2.78;;;;;;;;;;5036151;28;20052;-73
2023/09/26 08:13:02;;;;;;;8.55;2.42;;;;;;;;;;5034216;28;20102;-72
2023/09/26 08:16:43;;;;;;;9.02;2.38;;;;;;;;;;5030973;28;20100;-72
2023/09/26 08:20:24;;;;;;;8.82;2.38;;;;;;;;;;5029816;28;20041;-73
2023/09/26 08:24:04;;;;;;;9.32;2.30;;;;;;;;;;5027805;28;20110;-71
2023/09/26 08:27:46;;;;;;;7.70;2.45;;;;;;;;;;5033963;28;20397;-73
2023/09/26 08:31:26;;;;;;;11.85;2.40;;;;;;;;;;5039348;28;20080;-73
2023/09/26 08:35:09;;;;;;;6.85;2.03;;;;;;;;;;5042153;28;20484;-73
2023/09/26 08:38:50;;;;;;;13.15;2.17;;;;;;;;;;5032286;28;20048;-77
2023/09/26 08:42:36;;;;;;;3.95;1.70;;;;;;;;;;5041953;28;20087;-75
2023/09/26 08:46:16;;;;;;;9.60;2.50;;;;;;;;;;5039276;28;20034;-71
2023/09/26 08:49:57;;;;;;;7.32;2.40;;;;;;;;;;5041223;28;20045;-73
2023/09/26 08:53:38;;;;;;;9.50;2.25;;;;;;;;;;5041489;28;20059;-72
2023/09/26 08:57:21;;;;;;;4.95;2.30;;;;;;;;;;5039731;28;20071;-71
2023/09/26 09:01:02;;;;;;;5.65;2.30;;;;;;;;;;5051117;28;20780;-72
2023/09/26 09:04:42;;;;;;;6.78;2.40;;;;;;;;;;5033812;28;20050;-73
2023/09/26 09:08:22;;;;;;;5.40;2.25;;;;;;;;;;5048373;28;20045;-73
2023/09/26 09:12:13;;;;;;;5.97;2.17;;;;;;;;;;5046278;28;20103;-74
2023/09/26 09:15:17;;;;;;;13.68;2.67;;;;;;;;;;5050694;28;20051;-73
2023/09/26 09:18:58;;;;;;;11.27;3.25;;;;;;;;;;5038043;28;20059;-71
2023/09/26 09:22:40;;;;;;;12.80;4.03;;;;;;;;;;5041615;28;20044;-71
2023/09/26 09:26:20;;;;;;;7.40;3.83;;;;;;;;;;5041135;28;20135;-72
2023/09/26 09:30:01;;;;;;;10.68;3.85;;;;;;;;;;5045176;28;20057;-71
2023/09/26 09:33:41;;;;;;;12.40;2.90;;;;;;;;;;5042815;28;20037;-70
2023/09/26 09:37:21;;;;;;;12.73;3.10;;;;;;;;;;5035432;28;20053;-70
2023/09/26 09:41:02;;;;;;;5.93;2.50;;;;;;;;;;5044793;28;20041;-71
2023/09/26 09:44:42;;;;;;;9.38;2.60;;;;;;;;;;5042643;28;20453;-71
2023/09/26 09:48:24;;;;;;;13.55;2.30;;;;;;;;;;5042500;28;20521;-72
2023/09/26 09:52:05;;;;;;;6.93;2.17;;;;;;;;;;5049356;28;20040;-71
2023/09/26 09:55:45;;;;;;;8.23;2.70;;;;;;;;;;5044028;28;20056;-72
2023/09/26 09:59:28;;;;;;;5.45;2.33;;;;;;;;;;5040284;28;20434;-71
2023/09/26 10:03:11;;;;;;;7.28;2.58;;;;;;;;;;5042558;28;20053;-70
2023/09/26 10:06:49;;;;;;;8.60;2.35;;;;;;;;;;5042988;28;20401;-72
2023/09/26 10:10:29;;;;;;;9.15;1.85;;;;;;;;;;5038535;28;20056;-71
2023/09/26 10:14:12;;;;;;;5.97;1.65;;;;;;;;;;5048992;28;20114;-72
2023/09/26 10:17:52;;;;;;;4.60;1.77;;;;;;;;;;5047743;28;20361;-71
2023/09/26 10:21:40;;;;;;;6.57;1.67;;;;;;;;;;5037648;28;20424;-72
2023/09/26 10:25:08;;;;;;;5.57;2.13;;;;;;;;;;5043145;28;20083;-73
2023/09/26 10:28:48;;;;;;;7.80;2.10;;;;;;;;;;5031931;28;20239;-71
2023/09/26 10:32:24;;;;;;;10.40;2.75;;;;;;;;;;5042030;28;20059;-70
2023/09/26 10:36:04;;;;;;;7.28;2.45;;;;;;;;;;5040865;28;20051;-71
2023/09/26 10:39:53;;;;;;;9.95;2.13;;;;;;;;;;5043433;28;20733;-71
2023/09/26 10:43:34;;;;;;;5.45;1.67;;;;;;;;;;5039314;28;20045;-72
2023/09/26 10:47:15;;;;;;;7.00;2.10;;;;;;;;;;5034887;28;20056;-71
2023/09/26 10:50:54;;;;;;;4.15;1.30;;;;;;;;;;5043940;28;20048;-71
2023/09/26 10:54:35;;;;;;;5.13;1.70;;;;;;;;;;5037411;28;20374;-71
2023/09/26 10:58:15;;;;;;;3.22;1.40;;;;;;;;;;5044542;28;20048;-70
2023/09/26 11:01:55;;;;;;;7.28;1.60;;;;;;;;;;5047471;28;20053;-74
2023/09/26 11:05:36;;;;;;;4.43;1.35;;;;;;;;;;5043009;28;20112;-71
2023/09/26 11:09:17;;;;;;;4.18;1.95;;;;;;;;;;5034500;28;20106;-71
2023/09/26 11:12:59;;;;;;;4.20;1.67;;;;;;;;;;5035381;28;20044;-72
2023/09/26 11:16:39;;;;;;;4.68;1.63;;;;;;;;;;5029904;28;20432;-70
2023/09/26 11:20:20;;;;;;;4.95;1.85;;;;;;;;;;5037275;28;20512;-72
2023/09/26 11:24:15;;;;;;;4.93;2.00;;;;;;;;;;5033696;28;20044;-71
2023/09/26 11:27:55;;;;;;;6.10;1.60;;;;;;;;;;5041978;28;20807;-73
2023/09/26 11:31:40;;;;;;;5.28;1.90;;;;;;;;;;5054969;28;20239;-74
2023/09/26 11:35:21;;;;;;;12.85;2.50;;;;;;;;;;5035406;28;20049;-74
2023/09/26 11:39:11;;;;;;;6.00;1.98;;;;;;;;;;5042133;28;20041;-74
2023/09/26 11:42:51;;;;;;;5.40;2.10;;;;;;;;;;5046606;28;20107;-71
2023/09/26 11:46:30;;;;;;;6.35;2.00;;;;;;;;;;5042677;28;20047;-72
2023/09/26 11:50:10;;;;;;;29.10;3.10;;;;;;;;;;5036752;28;20175;-71
2023/09/26 11:53:50;;;;;;;5.07;1.80;;;;;;;;;;5038938;28;20061;-71
2023/09/26 11:57:31;;;;;;;5.00;1.83;;;;;;;;;;5044298;28;20541;-72
2023/09/26 12:01:11;;;;;;;5.22;2.00;;;;;;;;;;5039846;28;20049;-72
2023/09/26 12:04:42;;;;;;;6.38;1.65;;;;;;;;;;5037623;28;20469;-72
2023/09/26 12:07:48;;;;;;;3.95;1.60;;;;;;;;;;5028340;28;20064;-72
2023/09/26 12:11:29;;;;;;;4.95;1.80;;;;;;;;;;5040881;28;20516;-72
2023/09/26 12:15:09;;;;;;;4.97;1.60;;;;;;;;;;5039008;28;20053;-72
2023/09/26 12:18:10;;;;;;;5.13;1.98;;;;;;;;;;5037057;28;20049;-71
2023/09/26 12:20:36;;;;;;;3.30;1.70;;;;;;;;;;5039213;28;20052;-70
2023/09/26 12:23:02;;;;;;;2.95;1.50;;;;;;;;;;5044497;28;20049;-72
2023/09/26 12:25:30;;;;;;;4.25;1.52;;;;;;;;;;5047557;28;20053;-71
2023/09/26 12:27:59;;;;;;;6.05;1.88;;;;;;;;;;5046208;28;20083;-75
2023/09/26 12:30:27;;;;;;;3.67;1.60;;;;;;;;;;5048319;28;20048;-71
2023/09/26 12:32:53;;;;;;;2.00;1.25;;;;;;;;;;5039844;28;20435;-72
2023/09/26 12:35:21;;;;;;;5.20;1.63;;;;;;;;;;5047796;28;20053;-72
2023/09/26 12:37:48;;;;;;;2.55;1.50;;;;;;;;;;5045873;28;20136;-72
2023/09/26 12:40:14;;;;;;;2.13;1.25;;;;;;;;;;5048290;28;20106;-71
2023/09/26 12:42:41;;;;;;;3.45;1.33;;;;;;;;;;5047690;28;20061;-74
2023/09/26 12:45:08;;;;;;;2.42;1.35;;;;;;;;;;5046217;28;20072;-72
2023/09/26 12:47:34;;;;;;;3.28;1.30;;;;;;;;;;5047756;28;20045;-72
2023/09/26 12:50:04;;;;;;;2.88;1.50;;;;;;;;;;5048575;28;20048;-72
2023/09/26 12:52:35;;;;;;;5.63;1.60;;;;;;;;;;5040360;28;21733;-72
2023/09/26 12:55:02;;;;;;;3.05;1.58;;;;;;;;;;5049815;28;20048;-70
2023/09/26 12:57:30;;;;;;;6.78;1.40;;;;;;;;;;5063150;28;20051;-72
2023/09/26 12:59:56;;;;;;;6.32;1.65;;;;;;;;;;5024007;28;20052;-71
2023/09/26 13:02:23;;;;;;;7.20;1.70;;;;;;;;;;5037636;28;20132;-71
2023/09/26 13:04:51;;;;;;;4.72;1.60;;;;;;;;;;5027590;28;20136;-70
2023/09/26 13:07:58;;;;;;;4.15;1.70;;;;;;;;;;5036009;28;20049;-72
2023/09/26 13:10:59;;;;;;;4.30;1.50;;;;;;;;;;5041911;28;20098;-71
2023/09/26 13:13:25;;;;;;;3.25;1.25;;;;;;;;;;5051744;28;20541;-72
2023/09/26 13:15:51;;;;;;;5.05;1.80;;;;;;;;;;5045677;28;20143;-72
2023/09/26 13:18:18;;;;;;;6.18;1.70;;;;;;;;;;5028978;28;20519;-72
2023/09/26 13:20:43;;;;;;;5.65;1.77;;;;;;;;;;5057009;28;20575;-72
2023/09/26 13:23:09;;;;;;;6.50;1.67;;;;;;;;;;5038261;28;20048;-73
2023/09/26 13:25:35;;;;;;;5.53;1.50;;;;;;;;;;5029480;28;20475;-71
2023/09/26 13:28:02;;;;;;;2.25;1.30;;;;;;;;;;5042402;28;20102;-73
2023/09/26 13:30:28;;;;;;;5.88;1.40;;;;;;;;;;5045337;28;20255;-72
2023/09/26 13:32:56;;;;;;;2.85;1.63;;;;;;;;;;5040207;28;20064;-73
2023/09/26 13:35:23;;;;;;;4.68;1.40;;;;;;;;;;5036622;28;20060;-73
2023/09/26 13:37:50;;;;;;;5.65;1.50;;;;;;;;;;5045291;28;20063;-73
2023/09/26 13:40:16;;;;;;;5.38;1.90;;;;;;;;;;5039541;28;20049;-72
2023/09/26 13:42:42;;;;;;;6.32;1.83;;;;;;;;;;5043009;28;20061;-73
2023/09/26 13:45:08;;;;;;;4.40;1.50;;;;;;;;;;5045306;28;20049;-73
2023/09/26 13:47:35;;;;;;;5.03;1.60;;;;;;;;;;5047289;28;20708;-72
2023/09/26 13:50:02;;;;;;;3.40;1.50;;;;;;;;;;5030596;28;20102;-71
2023/09/26 13:52:30;;;;;;;5.82;1.48;;;;;;;;;;5040949;28;20045;-73
2023/09/26 13:54:57;;;;;;;4.15;1.83;;;;;;;;;;5028022;28;20420;-72
2023/09/26 13:57:24;;;;;;;5.22;1.70;;;;;;;;;;5032814;28;20143;-73
2023/09/26 13:59:51;;;;;;;4.22;1.60;;;;;;;;;;5049591;28;20049;-72
2023/09/26 14:02:18;;;;;;;5.07;1.67;;;;;;;;;;5046290;28;20615;-72
2023/09/26 14:04:44;;;;;;;7.57;1.75;;;;;;;;;;5051792;28;20500;-72
2023/09/26 14:07:11;;;;;;;4.13;1.70;;;;;;;;;;5033033;28;20049;-74
2023/09/26 14:09:37;;;;;;;10.55;2.00;;;;;;;;;;5051057;28;20235;-74
2023/09/26 14:12:06;;;;;;;6.93;2.08;;;;;;;;;;5035514;28;20064;-74
2023/09/26 14:14:34;;;;;;;5.07;1.80;;;;;;;;;;5038011;28;20104;-72
2023/09/26 14:17:03;;;;;;;3.83;1.60;;;;;;;;;;5031585;28;20052;-74
2023/09/26 14:19:29;;;;;;;3.90;1.75;;;;;;;;;;5057673;28;20044;-72
2023/09/26 14:21:56;;;;;;;5.93;1.63;;;;;;;;;;5045784;28;20037;-73
2023/09/26 14:24:22;;;;;;;6.18;1.50;;;;;;;;;;5049987;28;20083;-72
2023/09/26 14:26:51;;;;;;;7.05;1.63;;;;;;;;;;5044999;28;20148;-75
2023/09/26 14:29:18;;;;;;;3.90;1.55;;;;;;;;;;5044991;28;20048;-72
2023/09/26 14:31:44;;;;;;;4.53;1.40;;;;;;;;;;5041367;28;20042;-72
2023/09/26 14:34:10;;;;;;;5.00;1.50;;;;;;;;;;5051608;28;20056;-71
2023/09/26 14:36:37;;;;;;;5.05;1.40;;;;;;;;;;5051971;28;20056;-73
2023/09/26 14:39:03;;;;;;;5.57;1.60;;;;;;;;;;5042658;28;20573;-72
2023/09/26 14:41:30;;;;;;;6.05;1.33;;;;;;;;;;5039328;28;20114;-72
2023/09/26 14:43:57;;;;;;;4.63;2.88;;;;;;;;;;5017664;28;20052;-73
2023/09/26 14:46:23;;;;;;;7.20;1.73;;;;;;;;;;5038626;28;20060;-67
2023/09/26 14:48:49;;;;;;;3.03;1.45;;;;;;;;;;5047594;28;20136;-68
2023/09/26 14:51:16;;;;;;;4.55;1.55;;;;;;;;;;5043140;28;20071;-69
2023/09/26 14:53:42;;;;;;;7.70;1.58;;;;;;;;;;5022862;28;20052;-72
2023/09/26 14:56:09;;;;;;;4.63;1.40;;;;;;;;;;5042496;28;20080;-69
2023/09/26 14:58:35;;;;;;;4.55;2.20;;;;;;;;;;5024007;28;20409;-69
2023/09/26 15:01:01;;;;;;;4.78;2.30;;;;;;;;;;5035907;28;20493;-70
2023/09/26 15:03:28;;;;;;;7.22;2.05;;;;;;;;;;5023132;28;20060;-70
2023/09/26 15:05:54;;;;;;;4.18;1.60;;;;;;;;;;5035606;28;20120;-69
2023/09/26 15:08:20;;;;;;;5.63;1.92;;;;;;;;;;5037694;28;20386;-69
2023/09/26 15:10:48;;;;;;;2.78;1.50;;;;;;;;;;5037568;28;20051;-69
2023/09/26 15:13:15;;;;;;;5.30;1.60;;;;;;;;;;5038910;28;20049;-70
2023/09/26 15:15:42;;;;;;;6.47;1.48;;;;;;;;;;5041531;28;20421;-71
2023/09/26 15:18:48;;;;;;;5.68;1.40;;;;;;;;;;5030623;28;20049;-65
2023/09/26 15:22:28;;;;;;;4.53;1.50;;;;;;;;;;5045688;28;20167;-68
2023/09/26 15:26:08;;;;;;;4.95;1.40;;;;;;;;;;5042488;28;20037;-68
2023/09/26 15:29:49;;;;;;;6.05;1.80;;;;;;;;;;5043564;28;20044;-68
2023/09/26 15:33:29;;;;;;;4.10;1.83;;;;;;;;;;5045409;28;20186;-66
2023/09/26 15:37:10;;;;;;;5.72;1.88;;;;;;;;;;5045115;28;20545;-69
2023/09/26 15:40:50;;;;;;;2.95;1.30;;;;;;;;;;5039726;28;20044;-67
2023/09/26 15:44:30;;;;;;;3.45;1.48;;;;;;;;;;5041123;28;20041;-67
2023/09/26 15:48:11;;;;;;;4.60;1.70;;;;;;;;;;5037676;28;20493;-69
2023/09/26 15:51:14;;;;;;;3.75;1.45;;;;;;;;;;5038996;28;20045;-69
2023/09/26 15:53:43;;;;;;;4.53;1.38;;;;;;;;;;5046875;28;20098;-70
2023/09/26 15:56:49;;;;;;;7.63;1.80;;;;;;;;;;5045793;28;20053;-69
2023/09/26 16:00:29;;;;;;;6.75;1.58;;;;;;;;;;5035316;28;20297;-70
2023/09/26 16:04:11;;;;;;;3.70;1.40;;;;;;;;;;5042715;28;21950;-68
2023/09/26 16:07:52;;;;;;;5.03;1.40;;;;;;;;;;5037374;28;20116;-66
2023/09/26 16:11:32;;;;;;;2.72;1.55;;;;;;;;;;5046236;28;20037;-69
2023/09/26 16:15:13;;;;;;;4.32;1.30;;;;;;;;;;5047323;28;20124;-66
2023/09/26 16:18:53;;;;;;;2.72;1.48;;;;;;;;;;5042519;28;20060;-65
2023/09/26 16:22:34;;;;;;;6.53;1.60;;;;;;;;;;5044825;28;20075;-68
2023/09/26 16:26:14;;;;;;;4.15;1.23;;;;;;;;;;5042402;28;20083;-67
2023/09/26 16:29:55;;;;;;;2.95;1.42;;;;;;;;;;5041849;28;20072;-66
2023/09/26 16:33:35;;;;;;;4.35;1.60;;;;;;;;;;5042275;28;20404;-66
2023/09/26 16:37:15;;;;;;;2.42;1.58;;;;;;;;;;5043784;28;20059;-67
2023/09/26 16:40:56;;;;;;;6.53;1.85;;;;;;;;;;5039067;28;20076;-65
2023/09/26 16:44:37;;;;;;;3.92;1.90;;;;;;;;;;5044387;28;20120;-67
2023/09/26 16:48:17;;;;;;;5.40;1.70;;;;;;;;;;5047354;28;20486;-67
2023/09/26 16:51:58;;;;;;;5.60;1.80;;;;;;;;;;5045413;28;20125;-68
2023/09/26 16:55:39;;;;;;;3.72;1.50;;;;;;;;;;5042395;28;20055;-67
2023/09/26 16:59:19;;;;;;;4.72;1.60;;;;;;;;;;5040004;28;20495;-66
2023/09/26 17:03:00;;;;;;;3.92;1.65;;;;;;;;;;5041318;28;20425;-69
2023/09/26 17:06:40;;;;;;;4.45;1.70;;;;;;;;;;5043807;28;20133;-73
2023/09/26 17:10:22;;;;;;;2.42;1.45;;;;;;;;;;5037956;28;20128;-67
2023/09/26 17:14:03;;;;;;;4.70;1.77;;;;;;;;;;5043497;28;20037;-70
2023/09/26 17:17:43;;;;;;;6.38;1.90;;;;;;;;;;5046381;28;20056;-69
2023/09/26 17:21:23;;;;;;;2.60;1.48;;;;;;;;;;5048076;28;20190;-68
2023/09/26 17:25:04;;;;;;;3.95;1.50;;;;;;;;;;5044573;28;20076;-70
2023/09/26 17:28:44;;;;;;;5.20;1.75;;;;;;;;;;5041547;28;20136;-68
2023/09/26 17:32:24;;;;;;;4.00;1.80;;;;;;;;;;5038630;28;20385;-67
2023/09/26 17:36:05;;;;;;;3.10;1.52;;;;;;;;;;5046940;28;20049;-67
2023/09/26 17:39:45;;;;;;;6.90;3.78;;;;;;;;;;5045697;28;20059;-68
2023/09/26 17:43:25;;;;;;;7.28;2.20;;;;;;;;;;5042232;28;20041;-70
2023/09/26 17:47:06;;;;;;;7.15;1.90;;;;;;;;;;5045564;28;20051;-66
2023/09/26 17:50:49;;;;;;;3.65;2.05;;;;;;;;;;5041342;28;20467;-70
2023/09/26 17:54:30;;;;;;;7.82;2.20;;;;;;;;;;5044613;28;20127;-66
2023/09/26 17:58:10;;;;;;;4.15;1.80;;;;;;;;;;5040833;28;20539;-67
2023/09/26 18:01:12;;;;;;;4.72;1.60;;;;;;;;;;5031686;28;20044;-68
2023/09/26 18:03:38;;;;;;;6.35;2.05;;;;;;;;;;5041639;28;20210;-67
2023/09/26 18:06:45;;;;;;;5.80;1.63;;;;;;;;;;5036091;28;20136;-68
2023/09/26 18:10:25;;;;;;;3.38;1.92;;;;;;;;;;5031945;28;20040;-68
2023/09/26 18:14:06;;;;;;;4.78;2.20;;;;;;;;;;5031529;28;20410;-67
2023/09/26 18:17:48;;;;;;;6.35;2.40;;;;;;;;;;5038573;28;20052;-66
2023/09/26 18:21:31;;;;;;;14.43;2.50;;;;;;;;;;5044939;28;20136;-66
2023/09/26 18:25:26;;;;;;;9.55;2.22;;;;;;;;;;5033564;28;20449;-69
2023/09/26 18:29:07;;;;;;;4.10;2.20;;;;;;;;;;5035165;28;20133;-66